sensor_id;sensor_type;location;lat;lon;timestamp;P1;durP1;ratioP1;P2;durP2;ratioP2
65543;SDS011;52173;45.204;39.240;2023-08-07T00:02:20;30.38;;;4.43;;
65543;SDS011;52173;45.204;39.240;2023-08-07T00:04:46;16.60;;;4.00;;
65543;SDS011;52173;45.204;39.240;2023-08-07T00:07:12;19.45;;;4.00;;
65543;SDS011;52173;45.204;39.240;2023-08-07T00:09:39;18.02;;;3.60;;
65543;SDS011;52173;45.204;39.240;2023-08-07T00:12:05;16.30;;;3.97;;
65543;SDS011;52173;45.204;39.240;2023-08-07T00:14:30;26.83;;;4.60;;
65543;SDS011;52173;45.204;39.240;2023-08-07T00:16:59;17.52;;;3.67;;
65543;SDS011;52173;45.204;39.240;2023-08-07T00:19:25;19.23;;;4.25;;
65543;SDS011;52173;45.204;39.240;2023-08-07T00:21:52;20.10;;;3.92;;
65543;SDS011;52173;45.204;39.240;2023-08-07T00:24:17;31.90;;;5.05;;
65543;SDS011;52173;45.204;39.240;2023-08-07T00:26:43;25.52;;;4.40;;
65543;SDS011;52173;45.204;39.240;2023-08-07T00:29:09;16.50;;;4.05;;
65543;SDS011;52173;45.204;39.240;2023-08-07T00:31:35;26.95;;;4.07;;
65543;SDS011;52173;45.204;39.240;2023-08-07T00:39:42;30.02;;;4.00;;
65543;SDS011;52173;45.204;39.240;2023-08-07T00:42:10;22.77;;;4.05;;
65543;SDS011;52173;45.204;39.240;2023-08-07T01:47:09;24.33;;;6.88;;
65543;SDS011;52173;45.204;39.240;2023-08-07T01:49:56;23.52;;;5.50;;
65543;SDS011;52173;45.204;39.240;2023-08-07T01:52:22;22.30;;;5.97;;
65543;SDS011;52173;45.204;39.240;2023-08-07T01:54:49;25.55;;;6.10;;
65543;SDS011;52173;45.204;39.240;2023-08-07T01:57:17;29.98;;;6.20;;
65543;SDS011;52173;45.204;39.240;2023-08-07T01:59:43;20.25;;;5.93;;
65543;SDS011;52173;45.204;39.240;2023-08-07T02:02:11;23.42;;;5.80;;
65543;SDS011;52173;45.204;39.240;2023-08-07T02:04:37;25.45;;;6.38;;
65543;SDS011;52173;45.204;39.240;2023-08-07T02:07:03;24.08;;;6.07;;
65543;SDS011;52173;45.204;39.240;2023-08-07T02:09:30;25.65;;;6.10;;
65543;SDS011;52173;45.204;39.240;2023-08-07T02:11:55;18.88;;;6.15;;
65543;SDS011;52173;45.204;39.240;2023-08-07T03:45:15;11.98;;;5.70;;
65543;SDS011;52173;45.204;39.240;2023-08-07T05:20:45;14.70;;;3.65;;
65543;SDS011;52173;45.204;39.240;2023-08-07T05:23:12;11.77;;;3.30;;
65543;SDS011;52173;45.204;39.240;2023-08-07T05:25:39;11.52;;;3.35;;
65543;SDS011;52173;45.204;39.240;2023-08-07T05:28:05;10.07;;;3.33;;
65543;SDS011;52173;45.204;39.240;2023-08-07T05:30:33;6.40;;;2.95;;
65543;SDS011;52173;45.204;39.240;2023-08-07T05:33:00;15.50;;;3.42;;
65543;SDS011;52173;45.204;39.240;2023-08-07T05:35:27;8.90;;;2.75;;
65543;SDS011;52173;45.204;39.240;2023-08-07T05:37:53;13.85;;;3.80;;
65543;SDS011;52173;45.204;39.240;2023-08-07T05:40:20;8.80;;;3.15;;
65543;SDS011;52173;45.204;39.240;2023-08-07T05:42:45;10.77;;;4.18;;
65543;SDS011;52173;45.204;39.240;2023-08-07T05:45:24;17.35;;;6.75;;
65543;SDS011;52173;45.204;39.240;2023-08-07T05:48:03;12.90;;;3.53;;
65543;SDS011;52173;45.204;39.240;2023-08-07T05:59:12;11.02;;;3.55;;
65543;SDS011;52173;45.204;39.240;2023-08-07T06:01:39;10.98;;;3.40;;
65543;SDS011;52173;45.204;39.240;2023-08-07T06:04:07;12.85;;;3.40;;
65543;SDS011;52173;45.204;39.240;2023-08-07T06:06:35;9.73;;;3.00;;
65543;SDS011;52173;45.204;39.240;2023-08-07T06:09:03;10.90;;;3.90;;
65543;SDS011;52173;45.204;39.240;2023-08-07T06:11:29;12.85;;;3.58;;
65543;SDS011;52173;45.204;39.240;2023-08-07T06:13:59;14.32;;;6.45;;
65543;SDS011;52173;45.204;39.240;2023-08-07T06:16:25;22.52;;;11.07;;
65543;SDS011;52173;45.204;39.240;2023-08-07T06:18:51;18.55;;;4.00;;
65543;SDS011;52173;45.204;39.240;2023-08-07T06:24:13;10.00;;;3.53;;
65543;SDS011;52173;45.204;39.240;2023-08-07T06:26:39;10.18;;;3.20;;
65543;SDS011;52173;45.204;39.240;2023-08-07T06:29:04;16.88;;;5.10;;
65543;SDS011;52173;45.204;39.240;2023-08-07T06:31:30;10.75;;;4.00;;
65543;SDS011;52173;45.204;39.240;2023-08-07T06:33:57;7.25;;;3.10;;
65543;SDS011;52173;45.204;39.240;2023-08-07T06:36:26;7.75;;;2.50;;
65543;SDS011;52173;45.204;39.240;2023-08-07T06:38:52;7.32;;;2.50;;
65543;SDS011;52173;45.204;39.240;2023-08-07T06:41:17;12.27;;;2.88;;
65543;SDS011;52173;45.204;39.240;2023-08-07T06:43:43;38.28;;;3.33;;
65543;SDS011;52173;45.204;39.240;2023-08-07T06:46:09;19.33;;;3.08;;
65543;SDS011;52173;45.204;39.240;2023-08-07T06:51:45;10.07;;;2.80;;
65543;SDS011;52173;45.204;39.240;2023-08-07T06:57:02;6.03;;;2.77;;
65543;SDS011;52173;45.204;39.240;2023-08-07T07:34:49;12.57;;;2.60;;
65543;SDS011;52173;45.204;39.240;2023-08-07T07:37:15;8.18;;;2.40;;
65543;SDS011;52173;45.204;39.240;2023-08-07T07:39:43;18.73;;;3.10;;
65543;SDS011;52173;45.204;39.240;2023-08-07T07:42:20;11.57;;;2.53;;
65543;SDS011;52173;45.204;39.240;2023-08-07T07:44:48;8.63;;;2.55;;
65543;SDS011;52173;45.204;39.240;2023-08-07T07:47:18;14.25;;;2.67;;
65543;SDS011;52173;45.204;39.240;2023-08-07T07:49:45;9.05;;;2.35;;
65543;SDS011;52173;45.204;39.240;2023-08-07T07:52:13;10.98;;;2.40;;
65543;SDS011;52173;45.204;39.240;2023-08-07T07:54:39;7.95;;;2.20;;
65543;SDS011;52173;45.204;39.240;2023-08-07T07:57:05;9.10;;;2.53;;
65543;SDS011;52173;45.204;39.240;2023-08-07T07:59:31;6.32;;;2.45;;
65543;SDS011;52173;45.204;39.240;2023-08-07T08:01:57;17.15;;;2.80;;
65543;SDS011;52173;45.204;39.240;2023-08-07T08:04:24;7.15;;;2.40;;
65543;SDS011;52173;45.204;39.240;2023-08-07T08:06:50;8.60;;;2.42;;
65543;SDS011;52173;45.204;39.240;2023-08-07T08:09:16;12.13;;;2.50;;
65543;SDS011;52173;45.204;39.240;2023-08-07T08:11:41;7.55;;;2.20;;
65543;SDS011;52173;45.204;39.240;2023-08-07T08:14:07;12.30;;;3.05;;
65543;SDS011;52173;45.204;39.240;2023-08-07T08:16:33;11.70;;;2.42;;
65543;SDS011;52173;45.204;39.240;2023-08-07T08:18:59;9.10;;;2.47;;
65543;SDS011;52173;45.204;39.240;2023-08-07T08:21:25;8.30;;;2.70;;
65543;SDS011;52173;45.204;39.240;2023-08-07T08:23:51;7.82;;;2.60;;
65543;SDS011;52173;45.204;39.240;2023-08-07T08:26:16;15.43;;;3.03;;
65543;SDS011;52173;45.204;39.240;2023-08-07T08:28:42;15.32;;;2.65;;
65543;SDS011;52173;45.204;39.240;2023-08-07T08:31:08;9.27;;;2.40;;
65543;SDS011;52173;45.204;39.240;2023-08-07T08:33:34;10.27;;;2.92;;
65543;SDS011;52173;45.204;39.240;2023-08-07T08:36:00;7.75;;;2.38;;
65543;SDS011;52173;45.204;39.240;2023-08-07T08:38:25;4.90;;;2.63;;
65543;SDS011;52173;45.204;39.240;2023-08-07T08:40:58;58.25;;;34.95;;
65543;SDS011;52173;45.204;39.240;2023-08-07T08:43:29;35.45;;;23.05;;
65543;SDS011;52173;45.204;39.240;2023-08-07T08:45:58;37.97;;;26.05;;
65543;SDS011;52173;45.204;39.240;2023-08-07T08:48:24;15.82;;;3.30;;
65543;SDS011;52173;45.204;39.240;2023-08-07T08:50:50;9.35;;;3.00;;
65543;SDS011;52173;45.204;39.240;2023-08-07T08:53:17;7.93;;;3.00;;
65543;SDS011;52173;45.204;39.240;2023-08-07T08:55:44;13.10;;;3.95;;
65543;SDS011;52173;45.204;39.240;2023-08-07T08:58:15;10.10;;;3.90;;
65543;SDS011;52173;45.204;39.240;2023-08-07T09:00:42;10.82;;;4.55;;
65543;SDS011;52173;45.204;39.240;2023-08-07T09:03:08;6.65;;;3.20;;
65543;SDS011;52173;45.204;39.240;2023-08-07T09:05:34;7.25;;;3.08;;
65543;SDS011;52173;45.204;39.240;2023-08-07T09:08:01;40.60;;;5.25;;
65543;SDS011;52173;45.204;39.240;2023-08-07T09:10:27;14.13;;;5.43;;
65543;SDS011;52173;45.204;39.240;2023-08-07T09:12:55;11.02;;;3.88;;
65543;SDS011;52173;45.204;39.240;2023-08-07T09:15:23;14.48;;;3.25;;
65543;SDS011;52173;45.204;39.240;2023-08-07T09:17:49;10.75;;;4.30;;
65543;SDS011;52173;45.204;39.240;2023-08-07T09:20:15;12.15;;;4.57;;
65543;SDS011;52173;45.204;39.240;2023-08-07T09:22:43;9.73;;;3.88;;
65543;SDS011;52173;45.204;39.240;2023-08-07T09:25:10;11.98;;;4.03;;
65543;SDS011;52173;45.204;39.240;2023-08-07T09:27:37;8.85;;;3.22;;
65543;SDS011;52173;45.204;39.240;2023-08-07T09:32:48;8.70;;;4.63;;
65543;SDS011;52173;45.204;39.240;2023-08-07T09:35:21;10.02;;;5.07;;
65543;SDS011;52173;45.204;39.240;2023-08-07T09:37:48;9.35;;;5.40;;
65543;SDS011;52173;45.204;39.240;2023-08-07T09:40:14;11.02;;;4.47;;
65543;SDS011;52173;45.204;39.240;2023-08-07T09:42:41;6.55;;;3.90;;
65543;SDS011;52173;45.204;39.240;2023-08-07T09:45:23;9.88;;;4.18;;
65543;SDS011;52173;45.204;39.240;2023-08-07T09:48:05;9.70;;;4.35;;
65543;SDS011;52173;45.204;39.240;2023-08-07T09:50:36;7.95;;;3.58;;
65543;SDS011;52173;45.204;39.240;2023-08-07T09:53:02;13.27;;;3.35;;
65543;SDS011;52173;45.204;39.240;2023-08-07T09:55:28;11.68;;;2.60;;
65543;SDS011;52173;45.204;39.240;2023-08-07T09:57:54;36.83;;;3.92;;
65543;SDS011;52173;45.204;39.240;2023-08-07T10:00:39;9.63;;;3.00;;
65543;SDS011;52173;45.204;39.240;2023-08-07T10:03:05;10.45;;;4.38;;
65543;SDS011;52173;45.204;39.240;2023-08-07T10:05:31;32.03;;;4.07;;
65543;SDS011;52173;45.204;39.240;2023-08-07T10:07:57;5.88;;;2.80;;
65543;SDS011;52173;45.204;39.240;2023-08-07T10:10:23;17.40;;;3.00;;
65543;SDS011;52173;45.204;39.240;2023-08-07T10:12:52;12.45;;;2.75;;
65543;SDS011;52173;45.204;39.240;2023-08-07T10:15:19;9.93;;;2.92;;
65543;SDS011;52173;45.204;39.240;2023-08-07T10:17:45;9.57;;;2.65;;
65543;SDS011;52173;45.204;39.240;2023-08-07T10:20:11;7.68;;;2.80;;
65543;SDS011;52173;45.204;39.240;2023-08-07T10:22:37;9.95;;;2.42;;
65543;SDS011;52173;45.204;39.240;2023-08-07T10:25:04;6.25;;;2.50;;
65543;SDS011;52173;45.204;39.240;2023-08-07T10:27:33;5.75;;;2.25;;
65543;SDS011;52173;45.204;39.240;2023-08-07T10:29:59;11.25;;;2.50;;
65543;SDS011;52173;45.204;39.240;2023-08-07T10:32:27;16.85;;;3.15;;
65543;SDS011;52173;45.204;39.240;2023-08-07T10:34:53;8.25;;;3.22;;
65543;SDS011;52173;45.204;39.240;2023-08-07T10:37:39;7.47;;;2.65;;
65543;SDS011;52173;45.204;39.240;2023-08-07T10:40:08;11.18;;;2.45;;
65543;SDS011;52173;45.204;39.240;2023-08-07T10:42:51;11.48;;;2.65;;
65543;SDS011;52173;45.204;39.240;2023-08-07T10:45:18;8.35;;;2.78;;
65543;SDS011;52173;45.204;39.240;2023-08-07T10:48:08;10.27;;;2.67;;
65543;SDS011;52173;45.204;39.240;2023-08-07T10:50:49;12.20;;;2.67;;
65543;SDS011;52173;45.204;39.240;2023-08-07T10:53:19;6.07;;;2.60;;
65543;SDS011;52173;45.204;39.240;2023-08-07T10:55:46;10.65;;;2.67;;
65543;SDS011;52173;45.204;39.240;2023-08-07T10:58:25;16.00;;;3.40;;
65543;SDS011;52173;45.204;39.240;2023-08-07T11:00:52;6.63;;;2.80;;
65543;SDS011;52173;45.204;39.240;2023-08-07T11:03:28;7.85;;;2.60;;
65543;SDS011;52173;45.204;39.240;2023-08-07T11:05:56;12.25;;;3.15;;
65543;SDS011;52173;45.204;39.240;2023-08-07T11:08:23;15.75;;;2.90;;
65543;SDS011;52173;45.204;39.240;2023-08-07T11:10:52;11.25;;;3.30;;
65543;SDS011;52173;45.204;39.240;2023-08-07T11:13:20;7.68;;;3.40;;
65543;SDS011;52173;45.204;39.240;2023-08-07T11:15:46;10.77;;;3.38;;
65543;SDS011;52173;45.204;39.240;2023-08-07T11:18:12;9.57;;;3.10;;
65543;SDS011;52173;45.204;39.240;2023-08-07T11:20:39;10.10;;;3.47;;
65543;SDS011;52173;45.204;39.240;2023-08-07T11:23:05;7.32;;;3.10;;
65543;SDS011;52173;45.204;39.240;2023-08-07T11:25:31;8.07;;;3.45;;
65543;SDS011;52173;45.204;39.240;2023-08-07T11:28:06;10.40;;;3.50;;
65543;SDS011;52173;45.204;39.240;2023-08-07T11:30:34;10.93;;;3.25;;
65543;SDS011;52173;45.204;39.240;2023-08-07T11:33:01;11.27;;;3.20;;
65543;SDS011;52173;45.204;39.240;2023-08-07T11:35:27;11.55;;;3.45;;
65543;SDS011;52173;45.204;39.240;2023-08-07T11:37:53;9.02;;;3.53;;
65543;SDS011;52173;45.204;39.240;2023-08-07T11:40:20;12.32;;;4.18;;
65543;SDS011;52173;45.204;39.240;2023-08-07T11:42:46;8.73;;;3.42;;
65543;SDS011;52173;45.204;39.240;2023-08-07T11:45:12;6.32;;;3.15;;
65543;SDS011;52173;45.204;39.240;2023-08-07T11:47:38;9.20;;;3.38;;
65543;SDS011;52173;45.204;39.240;2023-08-07T11:50:04;20.15;;;3.50;;
65543;SDS011;52173;45.204;39.240;2023-08-07T11:52:30;9.68;;;3.25;;
65543;SDS011;52173;45.204;39.240;2023-08-07T11:54:56;10.20;;;3.40;;
65543;SDS011;52173;45.204;39.240;2023-08-07T11:57:22;9.93;;;3.50;;
65543;SDS011;52173;45.204;39.240;2023-08-07T11:59:51;9.98;;;3.33;;
65543;SDS011;52173;45.204;39.240;2023-08-07T12:02:21;9.95;;;2.92;;
65543;SDS011;52173;45.204;39.240;2023-08-07T12:04:49;9.57;;;3.28;;
65543;SDS011;52173;45.204;39.240;2023-08-07T12:07:17;9.30;;;3.47;;
65543;SDS011;52173;45.204;39.240;2023-08-07T12:09:45;10.15;;;3.92;;
65543;SDS011;52173;45.204;39.240;2023-08-07T12:12:11;9.27;;;4.00;;
65543;SDS011;52173;45.204;39.240;2023-08-07T12:14:38;6.88;;;3.63;;
65543;SDS011;52173;45.204;39.240;2023-08-07T12:17:04;15.60;;;4.25;;
65543;SDS011;52173;45.204;39.240;2023-08-07T12:19:41;12.23;;;4.03;;
65543;SDS011;52173;45.204;39.240;2023-08-07T12:22:09;14.02;;;3.65;;
65543;SDS011;52173;45.204;39.240;2023-08-07T12:24:35;16.27;;;3.92;;
65543;SDS011;52173;45.204;39.240;2023-08-07T12:27:03;8.45;;;3.90;;
65543;SDS011;52173;45.204;39.240;2023-08-07T12:29:29;9.50;;;4.50;;
65543;SDS011;52173;45.204;39.240;2023-08-07T12:31:55;10.45;;;4.30;;
65543;SDS011;52173;45.204;39.240;2023-08-07T12:34:21;12.60;;;4.47;;
65543;SDS011;52173;45.204;39.240;2023-08-07T12:36:47;8.10;;;4.15;;
65543;SDS011;52173;45.204;39.240;2023-08-07T12:39:13;11.20;;;4.22;;
65543;SDS011;52173;45.204;39.240;2023-08-07T12:41:41;10.43;;;4.90;;
65543;SDS011;52173;45.204;39.240;2023-08-07T12:44:07;9.52;;;4.47;;
65543;SDS011;52173;45.204;39.240;2023-08-07T12:46:33;11.50;;;4.90;;
65543;SDS011;52173;45.204;39.240;2023-08-07T12:48:58;11.25;;;3.85;;
65543;SDS011;52173;45.204;39.240;2023-08-07T12:51:24;8.43;;;4.05;;
65543;SDS011;52173;45.204;39.240;2023-08-07T12:53:50;12.18;;;4.40;;
65543;SDS011;52173;45.204;39.240;2023-08-07T12:56:16;11.75;;;4.28;;
65543;SDS011;52173;45.204;39.240;2023-08-07T12:58:42;10.02;;;4.20;;
65543;SDS011;52173;45.204;39.240;2023-08-07T13:01:08;9.40;;;4.18;;
65543;SDS011;52173;45.204;39.240;2023-08-07T13:03:34;13.45;;;4.60;;
65543;SDS011;52173;45.204;39.240;2023-08-07T13:06:00;11.82;;;4.30;;
65543;SDS011;52173;45.204;39.240;2023-08-07T13:08:26;9.95;;;4.45;;
65543;SDS011;52173;45.204;39.240;2023-08-07T13:10:52;10.43;;;4.20;;
65543;SDS011;52173;45.204;39.240;2023-08-07T13:13:19;8.80;;;4.38;;
65543;SDS011;52173;45.204;39.240;2023-08-07T13:15:46;11.27;;;4.03;;
65543;SDS011;52173;45.204;39.240;2023-08-07T13:18:17;8.15;;;4.20;;
65543;SDS011;52173;45.204;39.240;2023-08-07T13:20:43;10.70;;;4.53;;
65543;SDS011;52173;45.204;39.240;2023-08-07T13:23:09;15.10;;;4.55;;
65543;SDS011;52173;45.204;39.240;2023-08-07T13:25:35;6.35;;;4.43;;
65543;SDS011;52173;45.204;39.240;2023-08-07T13:28:01;13.00;;;4.55;;
65543;SDS011;52173;45.204;39.240;2023-08-07T13:33:22;10.98;;;4.47;;
65543;SDS011;52173;45.204;39.240;2023-08-07T13:35:49;9.50;;;4.53;;
65543;SDS011;52173;45.204;39.240;2023-08-07T13:38:15;6.57;;;4.57;;
65543;SDS011;52173;45.204;39.240;2023-08-07T13:40:43;12.30;;;4.80;;
65543;SDS011;52173;45.204;39.240;2023-08-07T13:43:10;10.75;;;4.75;;
65543;SDS011;52173;45.204;39.240;2023-08-07T13:45:36;14.27;;;5.35;;
65543;SDS011;52173;45.204;39.240;2023-08-07T13:48:02;10.77;;;5.05;;
65543;SDS011;52173;45.204;39.240;2023-08-07T13:50:30;11.90;;;5.20;;
65543;SDS011;52173;45.204;39.240;2023-08-07T13:52:56;9.35;;;5.28;;
65543;SDS011;52173;45.204;39.240;2023-08-07T13:55:22;9.40;;;4.50;;
65543;SDS011;52173;45.204;39.240;2023-08-07T13:57:47;9.73;;;5.35;;
65543;SDS011;52173;45.204;39.240;2023-08-07T14:00:14;12.50;;;5.03;;
65543;SDS011;52173;45.204;39.240;2023-08-07T14:02:40;11.13;;;4.80;;
65543;SDS011;52173;45.204;39.240;2023-08-07T14:05:06;16.35;;;4.55;;
65543;SDS011;52173;45.204;39.240;2023-08-07T14:07:32;9.20;;;4.57;;
65543;SDS011;52173;45.204;39.240;2023-08-07T14:09:58;12.32;;;5.30;;
65543;SDS011;52173;45.204;39.240;2023-08-07T14:12:23;12.88;;;5.00;;
65543;SDS011;52173;45.204;39.240;2023-08-07T14:14:49;8.98;;;4.22;;
65543;SDS011;52173;45.204;39.240;2023-08-07T14:17:15;7.95;;;4.20;;
65543;SDS011;52173;45.204;39.240;2023-08-07T14:19:41;8.63;;;4.30;;
65543;SDS011;52173;45.204;39.240;2023-08-07T14:22:07;12.23;;;4.68;;
65543;SDS011;52173;45.204;39.240;2023-08-07T14:24:33;15.30;;;4.97;;
65543;SDS011;52173;45.204;39.240;2023-08-07T14:26:59;8.38;;;3.90;;
65543;SDS011;52173;45.204;39.240;2023-08-07T14:29:24;8.27;;;4.03;;
65543;SDS011;52173;45.204;39.240;2023-08-07T14:31:50;6.93;;;4.43;;
65543;SDS011;52173;45.204;39.240;2023-08-07T14:34:16;9.05;;;4.40;;
65543;SDS011;52173;45.204;39.240;2023-08-07T14:36:42;9.45;;;3.88;;
65543;SDS011;52173;45.204;39.240;2023-08-07T14:39:08;10.55;;;4.00;;
65543;SDS011;52173;45.204;39.240;2023-08-07T14:41:34;7.85;;;4.32;;
65543;SDS011;52173;45.204;39.240;2023-08-07T14:44:00;9.00;;;3.83;;
65543;SDS011;52173;45.204;39.240;2023-08-07T14:46:26;9.23;;;3.92;;
65543;SDS011;52173;45.204;39.240;2023-08-07T14:48:51;7.95;;;3.97;;
65543;SDS011;52173;45.204;39.240;2023-08-07T14:51:17;7.50;;;4.25;;
65543;SDS011;52173;45.204;39.240;2023-08-07T14:53:44;9.60;;;4.40;;
65543;SDS011;52173;45.204;39.240;2023-08-07T14:56:10;10.00;;;4.57;;
65543;SDS011;52173;45.204;39.240;2023-08-07T14:58:36;13.73;;;4.65;;
65543;SDS011;52173;45.204;39.240;2023-08-07T15:01:03;12.27;;;4.95;;
65543;SDS011;52173;45.204;39.240;2023-08-07T15:03:29;11.38;;;5.10;;
65543;SDS011;52173;45.204;39.240;2023-08-07T15:05:54;12.90;;;5.38;;
65543;SDS011;52173;45.204;39.240;2023-08-07T15:08:20;14.10;;;5.50;;
65543;SDS011;52173;45.204;39.240;2023-08-07T15:10:46;12.68;;;5.00;;
65543;SDS011;52173;45.204;39.240;2023-08-07T15:13:12;11.32;;;5.15;;
65543;SDS011;52173;45.204;39.240;2023-08-07T15:15:38;14.02;;;6.13;;
65543;SDS011;52173;45.204;39.240;2023-08-07T15:18:04;11.55;;;6.00;;
65543;SDS011;52173;45.204;39.240;2023-08-07T15:20:33;15.50;;;6.40;;
65543;SDS011;52173;45.204;39.240;2023-08-07T15:22:59;13.95;;;6.20;;
65543;SDS011;52173;45.204;39.240;2023-08-07T15:25:26;11.98;;;6.03;;
65543;SDS011;52173;45.204;39.240;2023-08-07T15:27:53;13.63;;;6.45;;
65543;SDS011;52173;45.204;39.240;2023-08-07T15:32:50;12.48;;;5.70;;
65543;SDS011;52173;45.204;39.240;2023-08-07T15:35:17;14.38;;;6.03;;
65543;SDS011;52173;45.204;39.240;2023-08-07T15:37:42;16.63;;;6.40;;
65543;SDS011;52173;45.204;39.240;2023-08-07T15:40:08;13.40;;;6.10;;
65543;SDS011;52173;45.204;39.240;2023-08-07T15:42:35;20.25;;;5.97;;
65543;SDS011;52173;45.204;39.240;2023-08-07T15:45:01;10.73;;;5.90;;
65543;SDS011;52173;45.204;39.240;2023-08-07T15:47:30;18.10;;;6.18;;
65543;SDS011;52173;45.204;39.240;2023-08-07T15:49:55;15.52;;;6.22;;
65543;SDS011;52173;45.204;39.240;2023-08-07T15:52:21;17.25;;;5.68;;
65543;SDS011;52173;45.204;39.240;2023-08-07T15:54:47;14.57;;;5.93;;
65543;SDS011;52173;45.204;39.240;2023-08-07T15:57:13;10.52;;;5.43;;
65543;SDS011;52173;45.204;39.240;2023-08-07T15:59:39;21.33;;;5.65;;
65543;SDS011;52173;45.204;39.240;2023-08-07T16:02:06;9.98;;;5.20;;
65543;SDS011;52173;45.204;39.240;2023-08-07T16:04:33;12.25;;;5.45;;
65543;SDS011;52173;45.204;39.240;2023-08-07T16:06:59;13.15;;;5.25;;
65543;SDS011;52173;45.204;39.240;2023-08-07T16:09:25;12.35;;;5.30;;
65543;SDS011;52173;45.204;39.240;2023-08-07T16:11:50;16.13;;;4.78;;
65543;SDS011;52173;45.204;39.240;2023-08-07T16:14:19;14.98;;;6.00;;
65543;SDS011;52173;45.204;39.240;2023-08-07T16:16:47;20.48;;;6.28;;
65543;SDS011;52173;45.204;39.240;2023-08-07T16:19:13;12.60;;;5.63;;
65543;SDS011;52173;45.204;39.240;2023-08-07T16:21:38;13.75;;;8.40;;
65543;SDS011;52173;45.204;39.240;2023-08-07T16:24:04;13.57;;;7.53;;
65543;SDS011;52173;45.204;39.240;2023-08-07T16:26:30;10.90;;;7.03;;
65543;SDS011;52173;45.204;39.240;2023-08-07T16:28:56;12.65;;;5.88;;
65543;SDS011;52173;45.204;39.240;2023-08-07T16:31:23;9.30;;;4.75;;
65543;SDS011;52173;45.204;39.240;2023-08-07T16:33:49;17.70;;;5.68;;
65543;SDS011;52173;45.204;39.240;2023-08-07T16:36:16;16.00;;;7.97;;
65543;SDS011;52173;45.204;39.240;2023-08-07T16:38:42;16.20;;;7.70;;
65543;SDS011;52173;45.204;39.240;2023-08-07T16:41:07;13.10;;;7.05;;
65543;SDS011;52173;45.204;39.240;2023-08-07T16:43:33;15.73;;;6.35;;
65543;SDS011;52173;45.204;39.240;2023-08-07T16:45:59;12.20;;;5.80;;
65543;SDS011;52173;45.204;39.240;2023-08-07T16:48:25;18.23;;;5.95;;
65543;SDS011;52173;45.204;39.240;2023-08-07T16:50:51;11.82;;;5.95;;
65543;SDS011;52173;45.204;39.240;2023-08-07T16:53:17;14.38;;;5.40;;
65543;SDS011;52173;45.204;39.240;2023-08-07T16:55:43;16.88;;;9.70;;
65543;SDS011;52173;45.204;39.240;2023-08-07T16:58:09;30.63;;;17.33;;
65543;SDS011;52173;45.204;39.240;2023-08-07T17:03:04;44.33;;;24.05;;
65543;SDS011;52173;45.204;39.240;2023-08-07T17:05:30;59.65;;;30.08;;
65543;SDS011;52173;45.204;39.240;2023-08-07T17:07:56;61.95;;;36.72;;
65543;SDS011;52173;45.204;39.240;2023-08-07T17:10:23;63.15;;;37.08;;
65543;SDS011;52173;45.204;39.240;2023-08-07T17:12:49;45.47;;;30.20;;
65543;SDS011;52173;45.204;39.240;2023-08-07T17:15:15;60.28;;;37.03;;
65543;SDS011;52173;45.204;39.240;2023-08-07T17:17:43;41.17;;;26.40;;
65543;SDS011;52173;45.204;39.240;2023-08-07T17:20:12;47.25;;;23.65;;
65543;SDS011;52173;45.204;39.240;2023-08-07T17:22:38;66.85;;;32.88;;
65543;SDS011;52173;45.204;39.240;2023-08-07T17:25:04;62.55;;;31.08;;
65543;SDS011;52173;45.204;39.240;2023-08-07T17:27:31;50.25;;;20.77;;
65543;SDS011;52173;45.204;39.240;2023-08-07T17:29:57;33.25;;;16.15;;
65543;SDS011;52173;45.204;39.240;2023-08-07T17:32:22;24.65;;;12.52;;
65543;SDS011;52173;45.204;39.240;2023-08-07T17:34:48;21.75;;;9.27;;
65543;SDS011;52173;45.204;39.240;2023-08-07T17:37:14;22.00;;;8.57;;
65543;SDS011;52173;45.204;39.240;2023-08-07T17:39:42;15.30;;;7.45;;
65543;SDS011;52173;45.204;39.240;2023-08-07T17:42:08;18.35;;;7.72;;
65543;SDS011;52173;45.204;39.240;2023-08-07T17:44:35;15.15;;;5.78;;
65543;SDS011;52173;45.204;39.240;2023-08-07T17:47:02;11.40;;;5.40;;
65543;SDS011;52173;45.204;39.240;2023-08-07T17:49:29;12.45;;;4.97;;
65543;SDS011;52173;45.204;39.240;2023-08-07T17:51:56;19.67;;;6.30;;
65543;SDS011;52173;45.204;39.240;2023-08-07T17:54:22;13.20;;;6.15;;
65543;SDS011;52173;45.204;39.240;2023-08-07T17:56:49;10.68;;;7.13;;
65543;SDS011;52173;45.204;39.240;2023-08-07T17:59:15;15.80;;;6.57;;
65543;SDS011;52173;45.204;39.240;2023-08-07T18:01:41;12.80;;;6.28;;
65543;SDS011;52173;45.204;39.240;2023-08-07T18:04:07;11.90;;;7.10;;
65543;SDS011;52173;45.204;39.240;2023-08-07T18:06:34;13.48;;;6.72;;
65543;SDS011;52173;45.204;39.240;2023-08-07T18:09:00;15.77;;;6.50;;
65543;SDS011;52173;45.204;39.240;2023-08-07T18:11:26;15.80;;;6.95;;
65543;SDS011;52173;45.204;39.240;2023-08-07T18:13:53;24.58;;;18.63;;
65543;SDS011;52173;45.204;39.240;2023-08-07T18:16:20;26.35;;;13.23;;
65543;SDS011;52173;45.204;39.240;2023-08-07T18:18:48;27.73;;;16.80;;
65543;SDS011;52173;45.204;39.240;2023-08-07T18:21:14;25.85;;;13.50;;
65543;SDS011;52173;45.204;39.240;2023-08-07T18:23:40;25.27;;;12.20;;
65543;SDS011;52173;45.204;39.240;2023-08-07T18:26:05;16.20;;;10.63;;
65543;SDS011;52173;45.204;39.240;2023-08-07T18:28:31;21.73;;;11.95;;
65543;SDS011;52173;45.204;39.240;2023-08-07T18:30:58;22.15;;;11.32;;
65543;SDS011;52173;45.204;39.240;2023-08-07T18:33:24;21.85;;;11.60;;
65543;SDS011;52173;45.204;39.240;2023-08-07T18:35:50;23.30;;;11.55;;
65543;SDS011;52173;45.204;39.240;2023-08-07T18:38:17;20.58;;;10.63;;
65543;SDS011;52173;45.204;39.240;2023-08-07T18:40:43;22.15;;;9.70;;
65543;SDS011;52173;45.204;39.240;2023-08-07T18:43:09;17.55;;;8.98;;
65543;SDS011;52173;45.204;39.240;2023-08-07T18:45:35;13.40;;;7.75;;
65543;SDS011;52173;45.204;39.240;2023-08-07T18:48:01;14.48;;;7.50;;
65543;SDS011;52173;45.204;39.240;2023-08-07T18:50:29;18.05;;;8.27;;
65543;SDS011;52173;45.204;39.240;2023-08-07T18:52:54;14.07;;;8.25;;
65543;SDS011;52173;45.204;39.240;2023-08-07T18:55:21;18.35;;;8.32;;
65543;SDS011;52173;45.204;39.240;2023-08-07T18:57:49;18.02;;;8.93;;
65543;SDS011;52173;45.204;39.240;2023-08-07T19:00:15;18.02;;;8.73;;
65543;SDS011;52173;45.204;39.240;2023-08-07T19:02:41;14.93;;;9.13;;
65543;SDS011;52173;45.204;39.240;2023-08-07T19:05:07;22.13;;;8.98;;
65543;SDS011;52173;45.204;39.240;2023-08-07T19:07:34;17.95;;;8.70;;
65543;SDS011;52173;45.204;39.240;2023-08-07T19:10:03;18.65;;;9.50;;
65543;SDS011;52173;45.204;39.240;2023-08-07T19:12:29;26.88;;;8.82;;
65543;SDS011;52173;45.204;39.240;2023-08-07T19:14:55;23.90;;;9.27;;
65543;SDS011;52173;45.204;39.240;2023-08-07T19:17:21;16.80;;;8.75;;
65543;SDS011;52173;45.204;39.240;2023-08-07T19:19:49;20.85;;;8.57;;
65543;SDS011;52173;45.204;39.240;2023-08-07T19:22:15;21.92;;;9.05;;
65543;SDS011;52173;45.204;39.240;2023-08-07T19:24:41;16.08;;;9.13;;
65543;SDS011;52173;45.204;39.240;2023-08-07T19:27:06;14.30;;;8.98;;
65543;SDS011;52173;45.204;39.240;2023-08-07T19:29:33;14.45;;;8.73;;
65543;SDS011;52173;45.204;39.240;2023-08-07T19:31:59;13.35;;;8.40;;
65543;SDS011;52173;45.204;39.240;2023-08-07T19:34:25;17.02;;;7.88;;
65543;SDS011;52173;45.204;39.240;2023-08-07T19:36:52;34.85;;;8.60;;
65543;SDS011;52173;45.204;39.240;2023-08-07T19:39:18;56.20;;;11.38;;